sensor_id;sensor_type;location;lat;lon;timestamp;temperature;humidity
24176;DHT22;12324;48.146;11.502;2024-01-27T00:03:25;2.40;99.90
24176;DHT22;12324;48.146;11.502;2024-01-27T00:05:52;2.30;99.90
24176;DHT22;12324;48.146;11.502;2024-01-27T00:08:19;2.40;99.90
24176;DHT22;12324;48.146;11.502;2024-01-27T00:10:47;2.30;99.90
24176;DHT22;12324;48.146;11.502;2024-01-27T00:13:14;2.30;99.90
24176;DHT22;12324;48.146;11.502;2024-01-27T00:15:41;2.30;99.90
24176;DHT22;12324;48.146;11.502;2024-01-27T00:18:08;2.30;99.90
24176;DHT22;12324;48.146;11.502;2024-01-27T00:25:29;2.20;99.90
24176;DHT22;12324;48.146;11.502;2024-01-27T00:27:56;2.10;99.90
24176;DHT22;12324;48.146;11.502;2024-01-27T00:30:23;2.10;99.90
24176;DHT22;12324;48.146;11.502;2024-01-27T00:32:50;2.00;99.90
24176;DHT22;12324;48.146;11.502;2024-01-27T00:35:17;1.90;99.90
24176;DHT22;12324;48.146;11.502;2024-01-27T00:37:44;1.90;99.90
24176;DHT22;12324;48.146;11.502;2024-01-27T00:40:11;1.80;99.90
24176;DHT22;12324;48.146;11.502;2024-01-27T00:42:37;1.80;99.90
24176;DHT22;12324;48.146;11.502;2024-01-27T00:45:05;1.80;99.90
24176;DHT22;12324;48.146;11.502;2024-01-27T00:47:32;1.70;99.90
24176;DHT22;12324;48.146;11.502;2024-01-27T00:49:59;1.80;99.90
24176;DHT22;12324;48.146;11.502;2024-01-27T00:52:26;1.70;99.90
24176;DHT22;12324;48.146;11.502;2024-01-27T00:54:53;1.70;99.90
24176;DHT22;12324;48.146;11.502;2024-01-27T00:57:20;1.70;99.90
24176;DHT22;12324;48.146;11.502;2024-01-27T00:59:47;1.70;99.90
24176;DHT22;12324;48.146;11.502;2024-01-27T01:02:13;1.60;99.90
24176;DHT22;12324;48.146;11.502;2024-01-27T01:04:41;1.70;99.90
24176;DHT22;12324;48.146;11.502;2024-01-27T01:07:09;1.60;99.90
24176;DHT22;12324;48.146;11.502;2024-01-27T01:09:35;1.60;99.90
24176;DHT22;12324;48.146;11.502;2024-01-27T01:12:02;1.70;99.90
24176;DHT22;12324;48.146;11.502;2024-01-27T01:14:29;1.60;99.90
24176;DHT22;12324;48.146;11.502;2024-01-27T01:16:56;1.70;99.90
24176;DHT22;12324;48.146;11.502;2024-01-27T01:19:23;1.60;99.90
24176;DHT22;12324;48.146;11.502;2024-01-27T01:21:50;1.70;99.90
24176;DHT22;12324;48.146;11.502;2024-01-27T01:24:18;1.70;99.90
24176;DHT22;12324;48.146;11.502;2024-01-27T01:26:44;1.60;99.90
24176;DHT22;12324;48.146;11.502;2024-01-27T01:29:11;1.60;99.90
24176;DHT22;12324;48.146;11.502;2024-01-27T01:31:41;1.60;99.90
24176;DHT22;12324;48.146;11.502;2024-01-27T01:34:09;1.70;99.90
24176;DHT22;12324;48.146;11.502;2024-01-27T01:36:39;1.70;99.90
24176;DHT22;12324;48.146;11.502;2024-01-27T01:39:06;1.60;99.90
24176;DHT22;12324;48.146;11.502;2024-01-27T01:41:33;1.50;99.90
24176;DHT22;12324;48.146;11.502;2024-01-27T01:44:00;1.50;99.90
24176;DHT22;12324;48.146;11.502;2024-01-27T01:46:27;1.40;99.90
24176;DHT22;12324;48.146;11.502;2024-01-27T01:48:54;1.50;99.90
24176;DHT22;12324;48.146;11.502;2024-01-27T01:51:22;1.70;99.90
24176;DHT22;12324;48.146;11.502;2024-01-27T01:53:49;1.60;99.90
24176;DHT22;12324;48.146;11.502;2024-01-27T01:56:17;1.60;99.90
24176;DHT22;12324;48.146;11.502;2024-01-27T01:58:44;1.60;99.90
24176;DHT22;12324;48.146;11.502;2024-01-27T02:01:11;1.50;99.90
24176;DHT22;12324;48.146;11.502;2024-01-27T02:03:38;1.40;99.90
24176;DHT22;12324;48.146;11.502;2024-01-27T02:06:06;1.30;99.90
24176;DHT22;12324;48.146;11.502;2024-01-27T02:08:33;1.30;99.90
24176;DHT22;12324;48.146;11.502;2024-01-27T02:10:59;1.30;99.90
24176;DHT22;12324;48.146;11.502;2024-01-27T02:13:29;1.30;99.90
24176;DHT22;12324;48.146;11.502;2024-01-27T02:15:55;1.30;99.90
24176;DHT22;12324;48.146;11.502;2024-01-27T02:18:22;1.30;99.90
24176;DHT22;12324;48.146;11.502;2024-01-27T02:20:49;1.20;99.90
24176;DHT22;12324;48.146;11.502;2024-01-27T02:23:16;1.30;99.90
24176;DHT22;12324;48.146;11.502;2024-01-27T02:25:43;1.30;99.90
24176;DHT22;12324;48.146;11.502;2024-01-27T02:28:10;1.30;99.90
24176;DHT22;12324;48.146;11.502;2024-01-27T02:30:37;1.20;99.90
24176;DHT22;12324;48.146;11.502;2024-01-27T02:33:05;1.20;99.90
24176;DHT22;12324;48.146;11.502;2024-01-27T02:35:32;1.30;99.90
24176;DHT22;12324;48.146;11.502;2024-01-27T02:37:58;1.20;99.90
24176;DHT22;12324;48.146;11.502;2024-01-27T02:40:25;1.30;99.90
24176;DHT22;12324;48.146;11.502;2024-01-27T02:42:52;1.20;99.90
24176;DHT22;12324;48.146;11.502;2024-01-27T02:45:19;1.20;99.90
24176;DHT22;12324;48.146;11.502;2024-01-27T02:47:46;1.10;99.90
24176;DHT22;12324;48.146;11.502;2024-01-27T02:50:13;1.20;99.90
24176;DHT22;12324;48.146;11.502;2024-01-27T02:52:40;1.30;99.90
24176;DHT22;12324;48.146;11.502;2024-01-27T02:55:07;1.30;99.90
24176;DHT22;12324;48.146;11.502;2024-01-27T02:57:34;1.30;99.90
24176;DHT22;12324;48.146;11.502;2024-01-27T03:00:00;1.40;99.90
24176;DHT22;12324;48.146;11.502;2024-01-27T03:02:28;1.30;99.90
24176;DHT22;12324;48.146;11.502;2024-01-27T03:04:55;1.20;99.90
24176;DHT22;12324;48.146;11.502;2024-01-27T03:07:22;1.30;99.90
24176;DHT22;12324;48.146;11.502;2024-01-27T03:09:48;1.40;99.90
24176;DHT22;12324;48.146;11.502;2024-01-27T03:12:15;1.40;99.90
24176;DHT22;12324;48.146;11.502;2024-01-27T03:14:42;1.40;99.90
24176;DHT22;12324;48.146;11.502;2024-01-27T03:17:09;1.40;99.90
24176;DHT22;12324;48.146;11.502;2024-01-27T03:19:36;1.40;99.90
24176;DHT22;12324;48.146;11.502;2024-01-27T03:22:03;1.50;99.90
24176;DHT22;12324;48.146;11.502;2024-01-27T03:24:30;1.40;99.90
24176;DHT22;12324;48.146;11.502;2024-01-27T03:26:56;1.40;99.90
24176;DHT22;12324;48.146;11.502;2024-01-27T03:29:23;1.30;99.90
24176;DHT22;12324;48.146;11.502;2024-01-27T03:31:50;1.30;99.90
24176;DHT22;12324;48.146;11.502;2024-01-27T03:34:17;1.40;99.90
24176;DHT22;12324;48.146;11.502;2024-01-27T03:36:48;1.30;99.90
24176;DHT22;12324;48.146;11.502;2024-01-27T03:39:14;1.30;99.90
24176;DHT22;12324;48.146;11.502;2024-01-27T03:41:41;1.30;99.90
24176;DHT22;12324;48.146;11.502;2024-01-27T03:44:08;1.20;99.90
24176;DHT22;12324;48.146;11.502;2024-01-27T03:46:35;1.20;99.90
24176;DHT22;12324;48.146;11.502;2024-01-27T03:49:04;1.10;99.90
24176;DHT22;12324;48.146;11.502;2024-01-27T03:51:31;1.20;99.90
24176;DHT22;12324;48.146;11.502;2024-01-27T03:53:58;1.20;99.90
24176;DHT22;12324;48.146;11.502;2024-01-27T03:56:25;1.20;99.90
24176;DHT22;12324;48.146;11.502;2024-01-27T03:58:51;1.20;99.90
24176;DHT22;12324;48.146;11.502;2024-01-27T04:01:18;1.20;99.90
24176;DHT22;12324;48.146;11.502;2024-01-27T04:03:46;1.20;99.90
24176;DHT22;12324;48.146;11.502;2024-01-27T04:06:13;1.20;99.90
24176;DHT22;12324;48.146;11.502;2024-01-27T04:08:40;1.20;99.90
24176;DHT22;12324;48.146;11.502;2024-01-27T04:11:19;1.10;99.90
24176;DHT22;12324;48.146;11.502;2024-01-27T04:13:45;1.10;99.90
24176;DHT22;12324;48.146;11.502;2024-01-27T04:16:12;1.10;99.90
24176;DHT22;12324;48.146;11.502;2024-01-27T04:18:40;1.00;99.90
24176;DHT22;12324;48.146;11.502;2024-01-27T04:21:07;1.00;99.90
24176;DHT22;12324;48.146;11.502;2024-01-27T04:23:34;1.20;99.90
24176;DHT22;12324;48.146;11.502;2024-01-27T04:26:00;1.10;99.90
24176;DHT22;12324;48.146;11.502;2024-01-27T04:28:27;1.10;99.90
24176;DHT22;12324;48.146;11.502;2024-01-27T04:30:56;1.00;99.90
24176;DHT22;12324;48.146;11.502;2024-01-27T04:33:23;1.10;99.90
24176;DHT22;12324;48.146;11.502;2024-01-27T04:35:50;1.00;99.90
24176;DHT22;12324;48.146;11.502;2024-01-27T04:38:17;0.90;99.90
24176;DHT22;12324;48.146;11.502;2024-01-27T04:40:44;1.00;99.90
24176;DHT22;12324;48.146;11.502;2024-01-27T04:43:17;1.10;99.90
24176;DHT22;12324;48.146;11.502;2024-01-27T04:45:44;1.00;99.90
24176;DHT22;12324;48.146;11.502;2024-01-27T04:48:11;1.00;99.90
24176;DHT22;12324;48.146;11.502;2024-01-27T04:50:38;1.00;99.90
24176;DHT22;12324;48.146;11.502;2024-01-27T04:53:05;1.00;99.90
24176;DHT22;12324;48.146;11.502;2024-01-27T04:55:32;1.00;99.90
24176;DHT22;12324;48.146;11.502;2024-01-27T04:57:58;1.10;99.90
24176;DHT22;12324;48.146;11.502;2024-01-27T05:00:26;1.10;99.90
24176;DHT22;12324;48.146;11.502;2024-01-27T05:02:54;1.00;99.90
24176;DHT22;12324;48.146;11.502;2024-01-27T05:05:22;1.00;99.90
24176;DHT22;12324;48.146;11.502;2024-01-27T05:07:48;0.90;99.90
24176;DHT22;12324;48.146;11.502;2024-01-27T05:10:16;0.90;99.90
24176;DHT22;12324;48.146;11.502;2024-01-27T05:12:43;0.90;99.90
24176;DHT22;12324;48.146;11.502;2024-01-27T05:15:10;0.80;99.90
24176;DHT22;12324;48.146;11.502;2024-01-27T05:17:38;0.70;99.90
24176;DHT22;12324;48.146;11.502;2024-01-27T05:20:06;0.70;99.90
24176;DHT22;12324;48.146;11.502;2024-01-27T05:22:33;0.60;99.90
24176;DHT22;12324;48.146;11.502;2024-01-27T05:25:00;0.70;99.90
24176;DHT22;12324;48.146;11.502;2024-01-27T05:27:27;0.70;99.90
24176;DHT22;12324;48.146;11.502;2024-01-27T05:29:54;0.70;99.90
24176;DHT22;12324;48.146;11.502;2024-01-27T05:32:21;0.70;99.90
24176;DHT22;12324;48.146;11.502;2024-01-27T05:34:47;0.70;99.90
24176;DHT22;12324;48.146;11.502;2024-01-27T05:37:14;0.70;99.90
24176;DHT22;12324;48.146;11.502;2024-01-27T05:39:41;0.80;99.90
24176;DHT22;12324;48.146;11.502;2024-01-27T05:42:08;0.70;99.90
24176;DHT22;12324;48.146;11.502;2024-01-27T05:44:35;0.70;99.90
24176;DHT22;12324;48.146;11.502;2024-01-27T05:47:02;0.70;99.90
24176;DHT22;12324;48.146;11.502;2024-01-27T05:49:29;0.70;99.90
24176;DHT22;12324;48.146;11.502;2024-01-27T05:51:55;0.60;99.90
24176;DHT22;12324;48.146;11.502;2024-01-27T05:54:22;0.60;99.90
24176;DHT22;12324;48.146;11.502;2024-01-27T05:56:49;0.50;99.90
24176;DHT22;12324;48.146;11.502;2024-01-27T05:59:16;0.50;99.90
24176;DHT22;12324;48.146;11.502;2024-01-27T06:01:42;0.50;99.90
24176;DHT22;12324;48.146;11.502;2024-01-27T06:04:11;0.40;99.90
24176;DHT22;12324;48.146;11.502;2024-01-27T06:06:41;0.40;99.90
24176;DHT22;12324;48.146;11.502;2024-01-27T06:09:08;0.40;99.90
24176;DHT22;12324;48.146;11.502;2024-01-27T06:11:38;0.30;99.90
24176;DHT22;12324;48.146;11.502;2024-01-27T06:14:05;0.20;99.90
24176;DHT22;12324;48.146;11.502;2024-01-27T06:16:33;0.30;99.90
24176;DHT22;12324;48.146;11.502;2024-01-27T06:19:01;0.20;99.90
24176;DHT22;12324;48.146;11.502;2024-01-27T06:21:28;0.20;99.90
24176;DHT22;12324;48.146;11.502;2024-01-27T06:23:55;0.20;99.90
24176;DHT22;12324;48.146;11.502;2024-01-27T06:26:22;0.20;99.90
24176;DHT22;12324;48.146;11.502;2024-01-27T06:28:48;0.20;99.90
24176;DHT22;12324;48.146;11.502;2024-01-27T06:31:16;0.20;99.90
24176;DHT22;12324;48.146;11.502;2024-01-27T06:33:42;0.20;99.90
24176;DHT22;12324;48.146;11.502;2024-01-27T06:36:10;0.30;99.90
24176;DHT22;12324;48.146;11.502;2024-01-27T06:38:37;0.40;99.90
24176;DHT22;12324;48.146;11.502;2024-01-27T06:41:04;0.30;99.90
24176;DHT22;12324;48.146;11.502;2024-01-27T06:43:31;0.40;99.90
24176;DHT22;12324;48.146;11.502;2024-01-27T06:45:58;0.30;99.90
24176;DHT22;12324;48.146;11.502;2024-01-27T06:48:25;0.40;99.90
24176;DHT22;12324;48.146;11.502;2024-01-27T06:50:53;0.40;99.90
24176;DHT22;12324;48.146;11.502;2024-01-27T06:53:20;0.40;99.90
24176;DHT22;12324;48.146;11.502;2024-01-27T06:55:47;0.40;99.90
24176;DHT22;12324;48.146;11.502;2024-01-27T06:58:14;0.40;99.90
24176;DHT22;12324;48.146;11.502;2024-01-27T07:00:40;0.40;99.90
24176;DHT22;12324;48.146;11.502;2024-01-27T07:03:08;0.30;99.90
24176;DHT22;12324;48.146;11.502;2024-01-27T07:05:39;0.40;99.90
24176;DHT22;12324;48.146;11.502;2024-01-27T07:08:07;0.30;99.90
24176;DHT22;12324;48.146;11.502;2024-01-27T07:10:35;0.40;99.90
24176;DHT22;12324;48.146;11.502;2024-01-27T07:13:02;0.50;99.90
24176;DHT22;12324;48.146;11.502;2024-01-27T07:15:29;0.30;99.90
24176;DHT22;12324;48.146;11.502;2024-01-27T07:17:56;0.40;99.90
24176;DHT22;12324;48.146;11.502;2024-01-27T07:20:23;0.30;99.90
24176;DHT22;12324;48.146;11.502;2024-01-27T07:22:51;0.30;99.90
24176;DHT22;12324;48.146;11.502;2024-01-27T07:25:18;0.40;99.90
24176;DHT22;12324;48.146;11.502;2024-01-27T07:27:45;0.50;99.90
24176;DHT22;12324;48.146;11.502;2024-01-27T07:30:13;0.50;99.90
24176;DHT22;12324;48.146;11.502;2024-01-27T07:32:42;0.50;99.90
24176;DHT22;12324;48.146;11.502;2024-01-27T07:35:10;0.50;99.90
24176;DHT22;12324;48.146;11.502;2024-01-27T07:37:37;0.60;99.90
24176;DHT22;12324;48.146;11.502;2024-01-27T07:40:05;0.70;99.90
24176;DHT22;12324;48.146;11.502;2024-01-27T07:42:32;0.70;99.90
24176;DHT22;12324;48.146;11.502;2024-01-27T07:44:59;0.70;99.90
24176;DHT22;12324;48.146;11.502;2024-01-27T07:47:26;0.70;99.90
24176;DHT22;12324;48.146;11.502;2024-01-27T07:52:20;0.80;99.90
24176;DHT22;12324;48.146;11.502;2024-01-27T07:54:47;1.00;99.90
24176;DHT22;12324;48.146;11.502;2024-01-27T07:57:14;1.10;99.90
24176;DHT22;12324;48.146;11.502;2024-01-27T07:59:41;1.10;99.90
24176;DHT22;12324;48.146;11.502;2024-01-27T08:02:08;1.20;99.90
24176;DHT22;12324;48.146;11.502;2024-01-27T08:04:34;1.30;99.90
24176;DHT22;12324;48.146;11.502;2024-01-27T08:07:01;1.30;99.90
24176;DHT22;12324;48.146;11.502;2024-01-27T08:09:32;1.30;99.90
24176;DHT22;12324;48.146;11.502;2024-01-27T08:12:00;1.40;99.90
24176;DHT22;12324;48.146;11.502;2024-01-27T08:14:28;1.40;99.90
24176;DHT22;12324;48.146;11.502;2024-01-27T08:16:58;1.50;99.90
24176;DHT22;12324;48.146;11.502;2024-01-27T08:19:24;1.60;99.90
24176;DHT22;12324;48.146;11.502;2024-01-27T08:21:51;2.20;99.90
24176;DHT22;12324;48.146;11.502;2024-01-27T08:24:18;2.50;99.90
24176;DHT22;12324;48.146;11.502;2024-01-27T08:26:45;3.30;99.90
24176;DHT22;12324;48.146;11.502;2024-01-27T08:29:13;3.50;99.90
24176;DHT22;12324;48.146;11.502;2024-01-27T08:31:39;3.00;99.90
24176;DHT22;12324;48.146;11.502;2024-01-27T08:34:06;3.40;99.90
24176;DHT22;12324;48.146;11.502;2024-01-27T08:36:34;2.90;99.90
24176;DHT22;12324;48.146;11.502;2024-01-27T09:15:58;2.70;99.90
24176;DHT22;12324;48.146;11.502;2024-01-27T09:18:26;3.50;99.90
24176;DHT22;12324;48.146;11.502;2024-01-27T09:20:54;3.50;99.90
24176;DHT22;12324;48.146;11.502;2024-01-27T09:23:21;3.70;99.90
24176;DHT22;12324;48.146;11.502;2024-01-27T09:25:48;3.70;99.90
24176;DHT22;12324;48.146;11.502;2024-01-27T09:28:14;3.70;99.90
24176;DHT22;12324;48.146;11.502;2024-01-27T11:55:00;3.70;99.90
24176;DHT22;12324;48.146;11.502;2024-01-27T11:57:27;5.70;99.90
24176;DHT22;12324;48.146;11.502;2024-01-27T11:59:55;5.60;99.90
24176;DHT22;12324;48.146;11.502;2024-01-27T12:14:47;5.70;99.90
24176;DHT22;12324;48.146;11.502;2024-01-27T12:22:28;8.70;99.90
24176;DHT22;12324;48.146;11.502;2024-01-27T12:30:09;8.60;99.90
24176;DHT22;12324;48.146;11.502;2024-01-27T12:35:08;9.50;99.90
24176;DHT22;12324;48.146;11.502;2024-01-27T12:37:35;9.70;99.90
24176;DHT22;12324;48.146;11.502;2024-01-27T12:40:02;9.50;99.90
24176;DHT22;12324;48.146;11.502;2024-01-27T12:42:29;9.00;99.90
24176;DHT22;12324;48.146;11.502;2024-01-27T12:49:51;11.20;99.20
24176;DHT22;12324;48.146;11.502;2024-01-27T12:52:19;11.30;95.00
24176;DHT22;12324;48.146;11.502;2024-01-27T12:54:45;11.80;93.10
24176;DHT22;12324;48.146;11.502;2024-01-27T12:57:12;11.80;88.50
24176;DHT22;12324;48.146;11.502;2024-01-27T12:59:40;12.20;82.90
24176;DHT22;12324;48.146;11.502;2024-01-27T13:07:01;13.70;86.80
24176;DHT22;12324;48.146;11.502;2024-01-27T13:09:28;12.60;84.00
24176;DHT22;12324;48.146;11.502;2024-01-27T13:11:55;13.70;79.30
24176;DHT22;12324;48.146;11.502;2024-01-27T13:14:22;13.20;80.10
24176;DHT22;12324;48.146;11.502;2024-01-27T13:16:49;12.70;78.60
24176;DHT22;12324;48.146;11.502;2024-01-27T13:19:16;13.20;75.30
24176;DHT22;12324;48.146;11.502;2024-01-27T13:21:43;12.90;76.80
24176;DHT22;12324;48.146;11.502;2024-01-27T13:24:09;13.20;76.20
24176;DHT22;12324;48.146;11.502;2024-01-27T13:26:36;13.60;74.80
24176;DHT22;12324;48.146;11.502;2024-01-27T13:31:33;14.10;74.20
24176;DHT22;12324;48.146;11.502;2024-01-27T13:34:01;12.40;75.00
24176;DHT22;12324;48.146;11.502;2024-01-27T13:36:28;12.30;76.40
24176;DHT22;12324;48.146;11.502;2024-01-27T13:38:56;12.60;76.90
24176;DHT22;12324;48.146;11.502;2024-01-27T13:41:24;13.30;75.80
24176;DHT22;12324;48.146;11.502;2024-01-27T13:43:51;12.60;74.50
24176;DHT22;12324;48.146;11.502;2024-01-27T13:46:18;12.60;74.10
24176;DHT22;12324;48.146;11.502;2024-01-27T13:48:46;13.10;81.80
24176;DHT22;12324;48.146;11.502;2024-01-27T13:51:14;14.20;75.10
24176;DHT22;12324;48.146;11.502;2024-01-27T13:53:41;13.50;72.80
24176;DHT22;12324;48.146;11.502;2024-01-27T13:56:13;14.10;72.70
24176;DHT22;12324;48.146;11.502;2024-01-27T13:58:41;13.00;72.00
24176;DHT22;12324;48.146;11.502;2024-01-27T14:01:08;12.60;70.80
24176;DHT22;12324;48.146;11.502;2024-01-27T14:03:37;13.50;72.40
24176;DHT22;12324;48.146;11.502;2024-01-27T14:06:05;13.50;71.60
24176;DHT22;12324;48.146;11.502;2024-01-27T14:08:33;13.60;70.30
24176;DHT22;12324;48.146;11.502;2024-01-27T14:10:59;13.40;69.90
24176;DHT22;12324;48.146;11.502;2024-01-27T14:13:26;13.00;72.00
24176;DHT22;12324;48.146;11.502;2024-01-27T14:15:53;12.80;77.10
24176;DHT22;12324;48.146;11.502;2024-01-27T14:18:23;12.60;87.80
24176;DHT22;12324;48.146;11.502;2024-01-27T14:20:50;12.10;82.80
24176;DHT22;12324;48.146;11.502;2024-01-27T14:23:17;11.70;83.10
24176;DHT22;12324;48.146;11.502;2024-01-27T14:25:44;11.20;80.90
24176;DHT22;12324;48.146;11.502;2024-01-27T14:28:14;11.30;83.20
24176;DHT22;12324;48.146;11.502;2024-01-27T14:30:41;10.90;86.60
24176;DHT22;12324;48.146;11.502;2024-01-27T14:33:11;10.70;91.70
24176;DHT22;12324;48.146;11.502;2024-01-27T14:35:38;10.60;90.00
24176;DHT22;12324;48.146;11.502;2024-01-27T14:38:06;10.30;91.30
24176;DHT22;12324;48.146;11.502;2024-01-27T14:40:35;9.80;91.00
24176;DHT22;12324;48.146;11.502;2024-01-27T14:43:03;9.80;92.40
24176;DHT22;12324;48.146;11.502;2024-01-27T14:45:35;9.40;91.50
24176;DHT22;12324;48.146;11.502;2024-01-27T14:48:02;8.30;94.90
24176;DHT22;12324;48.146;11.502;2024-01-27T14:50:30;8.30;99.90
24176;DHT22;12324;48.146;11.502;2024-01-27T14:52:57;8.10;99.90
24176;DHT22;12324;48.146;11.502;2024-01-27T14:55:25;7.80;99.90
24176;DHT22;12324;48.146;11.502;2024-01-27T14:57:53;7.70;99.90
24176;DHT22;12324;48.146;11.502;2024-01-27T15:00:20;7.40;99.90
24176;DHT22;12324;48.146;11.502;2024-01-27T15:02:47;7.30;99.90
24176;DHT22;12324;48.146;11.502;2024-01-27T15:05:14;7.20;99.90
24176;DHT22;12324;48.146;11.502;2024-01-27T15:07:41;7.00;99.90
24176;DHT22;12324;48.146;11.502;2024-01-27T15:10:08;6.80;99.90
24176;DHT22;12324;48.146;11.502;2024-01-27T15:12:36;6.90;99.90
24176;DHT22;12324;48.146;11.502;2024-01-27T15:15:04;6.50;99.90
24176;DHT22;12324;48.146;11.502;2024-01-27T15:17:31;6.50;99.90
24176;DHT22;12324;48.146;11.502;2024-01-27T15:19:58;6.50;99.90
24176;DHT22;12324;48.146;11.502;2024-01-27T15:22:25;6.40;99.90
24176;DHT22;12324;48.146;11.502;2024-01-27T15:24:52;6.40;99.90
24176;DHT22;12324;48.146;11.502;2024-01-27T15:27:20;6.30;99.90
24176;DHT22;12324;48.146;11.502;2024-01-27T15:29:46;6.30;99.90
24176;DHT22;12324;48.146;11.502;2024-01-27T15:32:13;6.20;99.90
24176;DHT22;12324;48.146;11.502;2024-01-27T15:34:44;6.10;99.90
24176;DHT22;12324;48.146;11.502;2024-01-27T15:37:11;6.10;99.90
24176;DHT22;12324;48.146;11.502;2024-01-27T15:42:05;5.80;99.90
24176;DHT22;12324;48.146;11.502;2024-01-27T15:44:32;5.70;99.90
24176;DHT22;12324;48.146;11.502;2024-01-27T15:46:59;5.60;99.90
24176;DHT22;12324;48.146;11.502;2024-01-27T15:49:27;5.50;99.90
24176;DHT22;12324;48.146;11.502;2024-01-27T15:51:54;5.40;99.90
24176;DHT22;12324;48.146;11.502;2024-01-27T15:54:21;5.30;99.90
24176;DHT22;12324;48.146;11.502;2024-01-27T15:56:48;5.40;99.90
24176;DHT22;12324;48.146;11.502;2024-01-27T15:59:15;5.40;99.90
24176;DHT22;12324;48.146;11.502;2024-01-27T16:01:42;6.30;99.90
24176;DHT22;12324;48.146;11.502;2024-01-27T16:04:09;5.70;99.90
24176;DHT22;12324;48.146;11.502;2024-01-27T16:06:36;5.20;99.90
24176;DHT22;12324;48.146;11.502;2024-01-27T16:09:03;4.80;99.90
24176;DHT22;12324;48.146;11.502;2024-01-27T16:11:30;4.60;99.90
24176;DHT22;12324;48.146;11.502;2024-01-27T16:13:58;4.40;99.90
24176;DHT22;12324;48.146;11.502;2024-01-27T16:16:24;4.30;99.90
24176;DHT22;12324;48.146;11.502;2024-01-27T16:18:52;4.20;99.90
24176;DHT22;12324;48.146;11.502;2024-01-27T16:21:20;4.10;99.90
24176;DHT22;12324;48.146;11.502;2024-01-27T16:23:47;4.00;99.90
24176;DHT22;12324;48.146;11.502;2024-01-27T16:26:14;3.90;99.90
24176;DHT22;12324;48.146;11.502;2024-01-27T16:28:41;3.80;99.90
24176;DHT22;12324;48.146;11.502;2024-01-27T16:31:09;3.80;99.90
24176;DHT22;12324;48.146;11.502;2024-01-27T16:33:35;3.70;99.90
24176;DHT22;12324;48.146;11.502;2024-01-27T16:36:03;3.60;99.90
24176;DHT22;12324;48.146;11.502;2024-01-27T16:38:31;3.40;99.90
24176;DHT22;12324;48.146;11.502;2024-01-27T16:40:58;3.30;99.90
24176;DHT22;12324;48.146;11.502;2024-01-27T16:43:25;3.20;99.90
24176;DHT22;12324;48.146;11.502;2024-01-27T16:45:52;3.10;99.90
24176;DHT22;12324;48.146;11.502;2024-01-27T17:50:02;3.00;99.90
24176;DHT22;12324;48.146;11.502;2024-01-27T17:52:30;2.00;99.90
24176;DHT22;12324;48.146;11.502;2024-01-27T17:54:57;1.90;99.90
24176;DHT22;12324;48.146;11.502;2024-01-27T17:57:23;1.90;99.90
24176;DHT22;12324;48.146;11.502;2024-01-27T17:59:50;1.90;99.90
24176;DHT22;12324;48.146;11.502;2024-01-27T18:02:21;1.80;99.90
24176;DHT22;12324;48.146;11.502;2024-01-27T18:04:52;1.90;99.90
24176;DHT22;12324;48.146;11.502;2024-01-27T18:07:21;1.90;99.90
24176;DHT22;12324;48.146;11.502;2024-01-27T23:54:53;0.20;99.90
24176;DHT22;12324;48.146;11.502;2024-01-27T23:57:19;-0.10;99.90
24176;DHT22;12324;48.146;11.502;2024-01-27T23:59:47;-0.20;99.90
